Time;durP1;ratioP1;P1;durP2;ratioP2;P2;SDS_P1;SDS_P2;PMS_P1;PMS_P2;Temp;Humidity;BMP_temperature;BMP_pressure;BME280_temperature;BME280_humidity;BME280_pressure;Samples;Min_cycle;Max_cycle;Signal;HPM_P1;HPM_P2
2022/10/22 00:00:13;;;;;;;1.60;0.70;;;11.60;80.80;;;;;;5044145;28;20039;-71
2022/10/22 00:02:39;;;;;;;2.13;0.60;;;11.60;81.50;;;;;;5063032;28;20083;-71
2022/10/22 00:05:05;;;;;;;3.22;0.77;;;11.60;81.70;;;;;;5075716;28;20048;-70
2022/10/22 00:07:31;;;;;;;2.95;0.82;;;11.60;82.70;;;;;;5036884;28;20441;-70
2022/10/22 00:09:57;;;;;;;2.35;0.85;;;11.50;82.00;;;;;;5057011;28;20071;-70
2022/10/22 00:12:22;;;;;;;1.80;0.80;;;11.50;81.10;;;;;;5056896;28;20024;-70
2022/10/22 00:14:48;;;;;;;1.80;0.60;;;11.50;79.80;;;;;;5058858;28;20090;-71
2022/10/22 00:17:14;;;;;;;2.72;1.30;;;11.50;79.10;;;;;;5053324;28;20029;-69
2022/10/22 00:19:40;;;;;;;2.05;0.68;;;11.50;79.70;;;;;;5059554;28;20317;-69
2022/10/22 00:22:07;;;;;;;2.92;0.70;;;11.50;78.60;;;;;;5053599;28;20064;-69
2022/10/22 00:24:34;;;;;;;2.00;0.90;;;11.50;79.70;;;;;;5060823;28;20024;-69
2022/10/22 00:27:00;;;;;;;1.70;0.70;;;11.40;79.80;;;;;;5056403;28;20078;-70
2022/10/22 00:29:25;;;;;;;4.70;0.80;;;11.40;78.90;;;;;;5063887;28;20020;-71
2022/10/22 00:31:54;;;;;;;3.50;0.95;;;11.40;78.20;;;;;;5060752;28;20037;-70
2022/10/22 00:34:21;;;;;;;3.97;1.30;;;11.40;77.20;;;;;;5063014;28;20111;-70
2022/10/22 00:36:50;;;;;;;3.83;0.80;;;11.30;76.50;;;;;;5061566;28;20029;-69
2022/10/22 00:39:18;;;;;;;3.75;0.98;;;11.30;74.90;;;;;;5034266;28;20080;-69
2022/10/22 00:41:49;;;;;;;1.52;0.70;;;11.30;75.70;;;;;;5034980;28;20029;-69
2022/10/22 00:44:52;;;;;;;3.15;1.00;;;11.30;76.90;;;;;;5034399;28;20108;-69
2022/10/22 00:47:19;;;;;;;1.35;0.75;;;11.20;75.60;;;;;;5032577;28;20776;-69
2022/10/22 00:49:46;;;;;;;3.63;1.02;;;11.20;74.80;;;;;;5041079;28;20068;-69
2022/10/22 00:52:13;;;;;;;3.28;0.98;;;11.20;74.10;;;;;;5032649;28;20025;-69
2022/10/22 00:54:40;;;;;;;4.03;1.27;;;11.20;73.30;;;;;;5035928;28;20044;-69
2022/10/22 00:57:05;;;;;;;2.60;1.15;;;11.20;72.90;;;;;;5052620;28;20047;-72
2022/10/22 00:59:32;;;;;;;16.08;1.17;;;11.20;72.50;;;;;;5035475;28;21627;-69
2022/10/22 01:01:57;;;;;;;3.45;0.73;;;11.10;72.10;;;;;;5038372;28;20041;-70
2022/10/22 01:04:23;;;;;;;4.38;0.90;;;11.10;71.40;;;;;;5043469;28;20437;-72
2022/10/22 01:06:49;;;;;;;2.95;0.95;;;11.10;71.50;;;;;;5044752;28;20033;-69
2022/10/22 01:09:39;;;;;;;3.70;1.35;;;11.10;71.10;;;;;;5053984;28;20037;-70
2022/10/22 01:12:35;;;;;;;4.78;1.55;;;11.10;70.70;;;;;;5061831;28;20074;-69
2022/10/22 01:15:28;;;;;;;2.70;1.20;;;11.20;70.40;;;;;;5050333;28;20036;-69
2022/10/22 01:18:03;;;;;;;4.07;1.05;;;11.20;71.00;;;;;;5070066;28;20028;-72
2022/10/22 01:20:43;;;;;;;;;;;11.20;71.80;;;;;;5055526;28;20025;-70
2022/10/22 01:23:23;;;;;;;3.17;1.00;;;11.10;72.00;;;;;;5053417;28;19924;-69
2022/10/22 01:26:10;;;;;;;3.22;1.02;;;11.10;71.20;;;;;;5027655;28;20029;-69
2022/10/22 01:28:51;;;;;;;2.92;1.02;;;11.10;71.00;;;;;;5050832;28;20058;-68
2022/10/22 01:31:18;;;;;;;6.53;1.25;;;11.10;70.80;;;;;;5056868;28;20036;-70
2022/10/22 01:33:45;;;;;;;3.03;1.10;;;11.00;70.70;;;;;;5066897;28;20078;-69
2022/10/22 01:36:12;;;;;;;6.13;1.08;;;11.00;70.60;;;;;;5063912;28;20033;-69
2022/10/22 01:38:41;;;;;;;8.48;1.08;;;11.00;70.40;;;;;;5052678;28;20025;-69
2022/10/22 01:41:07;;;;;;;3.50;0.90;;;11.00;70.40;;;;;;5051171;28;20317;-69
2022/10/22 01:43:33;;;;;;;1.95;1.02;;;11.00;70.40;;;;;;5053762;28;20036;-69
2022/10/22 01:46:02;;;;;;;2.25;0.80;;;10.90;70.50;;;;;;5060360;28;21472;-69
2022/10/22 01:48:54;;;;;;;4.38;1.00;;;10.90;70.10;;;;;;5043601;28;20294;-69
2022/10/22 01:51:44;;;;;;;3.03;0.90;;;11.00;70.30;;;;;;5054968;28;20025;-69
2022/10/22 01:54:28;;;;;;;1.75;0.80;;;10.90;70.50;;;;;;5067363;28;20036;-69
2022/10/22 01:57:09;;;;;;;3.30;0.95;;;11.00;71.20;;;;;;5054903;28;20045;-69
2022/10/22 01:59:37;;;;;;;3.40;0.70;;;10.90;71.30;;;;;;5052901;28;20383;-69
2022/10/22 02:02:19;;;;;;;6.25;1.10;;;10.90;71.30;;;;;;5054959;28;20135;-69
2022/10/22 02:05:06;;;;;;;2.15;1.00;;;10.90;71.90;;;;;;5056245;28;20059;-69
2022/10/22 02:07:39;;;;;;;3.33;1.10;;;10.90;72.40;;;;;;5062697;28;20021;-69
2022/10/22 02:10:07;;;;;;;3.38;0.80;;;10.90;72.70;;;;;;5057097;28;20123;-69
2022/10/22 02:12:36;;;;;;;2.10;0.80;;;10.90;73.20;;;;;;5059114;28;20028;-69
2022/10/22 02:15:03;;;;;;;1.33;0.77;;;10.90;73.10;;;;;;5056444;28;20116;-69
2022/10/22 02:17:32;;;;;;;1.10;0.85;;;11.00;72.80;;;;;;5053396;28;20045;-68
2022/10/22 02:20:13;;;;;;;2.25;0.73;;;11.00;73.80;;;;;;5056340;28;20036;-68
2022/10/22 02:22:38;;;;;;;3.17;0.80;;;11.00;74.30;;;;;;5057419;28;20012;-68
2022/10/22 02:25:05;;;;;;;2.72;0.80;;;11.10;74.60;;;;;;5062829;28;20132;-69
2022/10/22 02:27:37;;;;;;;3.10;0.90;;;11.10;75.50;;;;;;5061512;28;20033;-68
2022/10/22 02:30:12;;;;;;;3.50;0.90;;;11.10;76.20;;;;;;5060509;28;20024;-68
2022/10/22 02:33:03;;;;;;;0.60;0.60;;;11.10;76.40;;;;;;5050848;28;20035;-68
2022/10/22 02:35:30;;;;;;;2.53;0.80;;;11.10;78.80;;;;;;5056237;28;20425;-68
2022/10/22 02:37:57;;;;;;;1.20;0.70;;;11.20;80.20;;;;;;5063534;28;20029;-68
2022/10/22 02:40:24;;;;;;;2.08;0.80;;;11.30;83.20;;;;;;5060127;28;20036;-68
2022/10/22 02:42:50;;;;;;;2.33;0.85;;;11.30;86.20;;;;;;5055445;28;20029;-68
2022/10/22 02:45:18;;;;;;;1.67;0.70;;;11.30;85.80;;;;;;5059413;28;20033;-68
2022/10/22 02:47:44;;;;;;;2.28;0.80;;;11.40;87.60;;;;;;5049241;28;20104;-68
2022/10/22 02:50:10;;;;;;;3.03;0.73;;;11.40;89.00;;;;;;5053090;28;20405;-68
2022/10/22 02:52:36;;;;;;;3.45;0.90;;;11.50;90.80;;;;;;5051004;28;20049;-68
2022/10/22 02:55:02;;;;;;;1.38;0.80;;;11.60;91.70;;;;;;5033992;28;20264;-68
2022/10/22 02:57:28;;;;;;;1.77;0.90;;;11.60;89.90;;;;;;5055186;28;20040;-67
2022/10/22 02:59:54;;;;;;;2.83;0.70;;;11.60;90.50;;;;;;5051074;28;20022;-68
2022/10/22 03:02:19;;;;;;;2.53;0.80;;;11.60;90.30;;;;;;5053177;28;20053;-68
2022/10/22 03:04:45;;;;;;;4.00;0.80;;;11.70;93.80;;;;;;5049891;28;20032;-68
2022/10/22 03:07:11;;;;;;;3.15;0.68;;;11.80;94.20;;;;;;5048731;28;20037;-68
2022/10/22 03:09:36;;;;;;;1.98;0.80;;;11.70;93.80;;;;;;5054635;28;20033;-67
2022/10/22 03:12:05;;;;;;;1.42;0.77;;;11.70;94.20;;;;;;5042208;28;20063;-67
2022/10/22 03:14:30;;;;;;;2.42;0.75;;;11.70;94.30;;;;;;5049662;28;20032;-66
2022/10/22 03:16:56;;;;;;;3.03;0.70;;;11.70;93.80;;;;;;5051843;28;20024;-67
2022/10/22 03:19:22;;;;;;;1.98;0.70;;;11.70;94.40;;;;;;5053167;28;20087;-67
2022/10/22 03:22:03;;;;;;;1.95;0.73;;;11.70;95.00;;;;;;5051524;28;20029;-67
2022/10/22 03:24:35;;;;;;;1.92;0.80;;;11.70;94.20;;;;;;5045522;28;20036;-68
2022/10/22 03:27:01;;;;;;;2.10;0.70;;;11.60;93.50;;;;;;5050054;28;20029;-68
2022/10/22 03:29:27;;;;;;;1.77;0.80;;;11.60;92.50;;;;;;5054472;28;20428;-68
2022/10/22 03:31:53;;;;;;;2.28;0.88;;;11.60;93.10;;;;;;5058108;28;20029;-68
2022/10/22 03:34:19;;;;;;;4.60;0.82;;;11.50;91.50;;;;;;5055434;28;20057;-68
2022/10/22 03:36:45;;;;;;;1.63;0.80;;;11.40;89.40;;;;;;5054916;28;20052;-68
2022/10/22 03:39:13;;;;;;;2.58;0.88;;;11.40;88.20;;;;;;5055788;28;20047;-68
2022/10/22 03:41:40;;;;;;;1.77;0.85;;;11.40;86.80;;;;;;5055465;28;20029;-67
2022/10/22 03:44:06;;;;;;;3.25;1.00;;;11.30;85.30;;;;;;5055813;28;20425;-67
2022/10/22 03:46:32;;;;;;;1.70;0.70;;;11.30;84.60;;;;;;5056161;28;20045;-67
2022/10/22 03:48:57;;;;;;;2.05;0.93;;;11.20;84.40;;;;;;5056349;28;20033;-68
2022/10/22 03:51:26;;;;;;;2.15;0.80;;;11.20;84.20;;;;;;5053999;28;20029;-67
2022/10/22 03:53:52;;;;;;;1.52;0.80;;;11.20;85.70;;;;;;5054110;28;20558;-67
2022/10/22 03:56:19;;;;;;;2.03;0.80;;;11.20;88.50;;;;;;5053124;28;20028;-67
2022/10/22 03:58:45;;;;;;;2.05;1.20;;;11.30;88.30;;;;;;5041642;28;20025;-67
2022/10/22 04:01:12;;;;;;;3.55;0.90;;;11.30;89.00;;;;;;5049795;28;20036;-67
2022/10/22 04:03:39;;;;;;;2.03;0.80;;;11.30;89.50;;;;;;5050276;28;20028;-67
2022/10/22 04:06:10;;;;;;;2.92;0.80;;;11.20;87.80;;;;;;5054806;28;20033;-67
2022/10/22 04:08:38;;;;;;;2.13;0.80;;;11.20;87.10;;;;;;5051628;28;20017;-67
2022/10/22 04:11:04;;;;;;;2.78;0.70;;;11.10;87.00;;;;;;5053898;28;20048;-67
2022/10/22 04:13:30;;;;;;;2.40;0.80;;;11.10;88.00;;;;;;5055291;28;20061;-67
2022/10/22 04:16:04;;;;;;;1.27;0.70;;;11.10;90.50;;;;;;5049648;28;20064;-67
2022/10/22 04:18:30;;;;;;;2.15;0.85;;;11.10;89.10;;;;;;5052442;28;20430;-67
2022/10/22 04:20:56;;;;;;;1.10;0.70;;;11.10;88.90;;;;;;5055265;28;20060;-66
2022/10/22 04:23:21;;;;;;;4.32;0.90;;;11.10;89.40;;;;;;5055385;28;20029;-67
2022/10/22 04:25:47;;;;;;;2.10;0.60;;;11.10;91.10;;;;;;5053989;28;20029;-67
2022/10/22 04:28:12;;;;;;;1.35;0.80;;;11.10;89.70;;;;;;5053205;28;20091;-67
2022/10/22 04:30:38;;;;;;;2.88;0.70;;;11.10;88.70;;;;;;5052763;28;20092;-67
2022/10/22 04:33:04;;;;;;;1.33;0.60;;;11.00;89.60;;;;;;5056253;28;20053;-67
2022/10/22 04:35:29;;;;;;;2.42;0.70;;;11.10;92.20;;;;;;5033273;28;20421;-67
2022/10/22 04:37:55;;;;;;;1.45;0.75;;;11.10;93.00;;;;;;5055685;28;20033;-67
2022/10/22 04:40:21;;;;;;;11.38;3.65;;;11.10;92.90;;;;;;5050670;28;20120;-67
2022/10/22 04:42:47;;;;;;;2.78;0.70;;;11.00;91.30;;;;;;5037982;28;20018;-67
2022/10/22 04:45:14;;;;;;;4.50;0.80;;;10.90;89.80;;;;;;5054829;28;20033;-67
2022/10/22 04:47:40;;;;;;;1.98;0.75;;;10.90;87.70;;;;;;5054086;28;20021;-67
2022/10/22 04:50:06;;;;;;;2.05;0.70;;;10.80;88.00;;;;;;5052021;28;20055;-68
2022/10/22 04:52:31;;;;;;;3.42;0.77;;;10.80;87.10;;;;;;5054724;28;20033;-67
2022/10/22 04:54:57;;;;;;;1.55;0.80;;;10.80;86.20;;;;;;5052209;28;20421;-67
2022/10/22 04:57:23;;;;;;;3.92;0.93;;;10.80;84.80;;;;;;5053340;28;20029;-67
2022/10/22 04:59:48;;;;;;;4.00;0.90;;;10.70;83.60;;;;;;5052989;28;20928;-67
2022/10/22 05:02:14;;;;;;;1.95;1.00;;;10.70;81.80;;;;;;5055771;28;20314;-67
2022/10/22 05:04:42;;;;;;;2.75;1.27;;;10.70;80.60;;;;;;5051457;28;20037;-67
2022/10/22 05:07:07;;;;;;;1.90;0.90;;;10.70;81.10;;;;;;5055415;28;20045;-67
2022/10/22 05:09:33;;;;;;;5.90;0.98;;;10.80;82.00;;;;;;5051180;28;20076;-67
2022/10/22 05:11:59;;;;;;;3.67;0.80;;;10.80;82.20;;;;;;5050703;28;20032;-67
2022/10/22 05:14:25;;;;;;;2.55;0.80;;;10.80;83.50;;;;;;5056943;28;20036;-67
2022/10/22 05:16:51;;;;;;;4.05;0.90;;;10.90;85.10;;;;;;5056196;28;20315;-67
2022/10/22 05:19:26;;;;;;;2.05;0.80;;;10.90;85.60;;;;;;5044684;28;20041;-67
2022/10/22 05:21:53;;;;;;;2.38;0.98;;;11.00;88.50;;;;;;5051414;28;20021;-67
2022/10/22 05:24:19;;;;;;;2.30;0.90;;;11.10;91.80;;;;;;5056657;28;20033;-67
2022/10/22 05:26:47;;;;;;;1.60;0.80;;;11.30;93.40;;;;;;5054099;28;20075;-67
2022/10/22 05:29:13;;;;;;;2.65;0.88;;;11.40;93.80;;;;;;5055348;28;20386;-67
2022/10/22 05:31:38;;;;;;;2.63;1.05;;;11.40;94.00;;;;;;5041914;28;20079;-67
2022/10/22 05:34:04;;;;;;;3.28;0.98;;;11.40;93.30;;;;;;5034713;28;20061;-67
2022/10/22 05:36:30;;;;;;;4.53;2.13;;;11.50;93.30;;;;;;5054985;28;20025;-67
2022/10/22 05:38:57;;;;;;;2.63;1.10;;;11.50;93.10;;;;;;5045974;28;20552;-67
2022/10/22 05:41:26;;;;;;;9.30;1.35;;;11.50;94.10;;;;;;5049045;28;20044;-67
2022/10/22 05:43:55;;;;;;;5.45;1.20;;;11.60;94.60;;;;;;5049399;28;20839;-67
2022/10/22 05:46:22;;;;;;;2.88;1.23;;;11.60;94.70;;;;;;5041551;28;20108;-67
2022/10/22 05:48:55;;;;;;;5.43;1.65;;;11.60;95.00;;;;;;5051787;28;20024;-67
2022/10/22 05:51:24;;;;;;;5.30;3.13;;;11.60;95.60;;;;;;5053895;28;20020;-67
2022/10/22 05:53:59;;;;;;;2.80;1.55;;;11.70;95.50;;;;;;5053794;28;20280;-67
2022/10/22 05:56:26;;;;;;;3.58;0.80;;;11.70;95.10;;;;;;5027392;28;20045;-67
2022/10/22 05:58:52;;;;;;;2.72;0.90;;;11.60;95.10;;;;;;5054512;28;20155;-67
2022/10/22 06:01:26;;;;;;;1.52;0.80;;;11.60;94.60;;;;;;5053844;28;20049;-67
2022/10/22 06:03:57;;;;;;;3.47;1.63;;;11.60;95.20;;;;;;5055301;28;20017;-67
2022/10/22 06:06:44;;;;;;;2.35;0.80;;;11.60;94.90;;;;;;5051053;28;20061;-66
2022/10/22 06:09:09;;;;;;;3.33;1.08;;;11.60;95.40;;;;;;5048999;28;20053;-66
2022/10/22 06:11:35;;;;;;;4.07;1.00;;;11.60;95.20;;;;;;5053412;28;20060;-66
2022/10/22 06:14:06;;;;;;;2.42;1.00;;;11.70;94.90;;;;;;5055676;28;20033;-65
2022/10/22 06:16:32;;;;;;;4.82;1.10;;;11.70;95.00;;;;;;5054682;28;20096;-66
2022/10/22 06:19:05;;;;;;;7.38;0.90;;;11.70;95.20;;;;;;5055703;28;20029;-68
2022/10/22 06:21:31;;;;;;;1.50;0.95;;;11.80;95.00;;;;;;5055791;28;20036;-67
2022/10/22 06:23:58;;;;;;;3.30;0.90;;;11.90;95.90;;;;;;5054773;28;20036;-67
2022/10/22 06:26:24;;;;;;;1.83;0.95;;;11.90;95.90;;;;;;5053342;28;20021;-67
2022/10/22 06:28:50;;;;;;;4.30;0.90;;;12.00;96.30;;;;;;5055751;28;20025;-67
2022/10/22 06:31:16;;;;;;;1.67;0.85;;;12.00;96.00;;;;;;5053959;28;20440;-66
2022/10/22 06:33:42;;;;;;;1.95;0.95;;;12.00;96.10;;;;;;5050944;28;20084;-66
2022/10/22 06:36:14;;;;;;;5.15;1.05;;;12.10;95.90;;;;;;5054525;28;20025;-68
2022/10/22 06:38:40;;;;;;;2.30;0.90;;;12.20;95.50;;;;;;5053520;28;20151;-67
2022/10/22 06:41:09;;;;;;;4.10;0.80;;;12.30;96.30;;;;;;5051365;28;20361;-67
2022/10/22 06:43:35;;;;;;;1.60;0.93;;;12.50;96.90;;;;;;5055211;28;20029;-67
2022/10/22 06:46:03;;;;;;;3.67;0.85;;;12.70;98.00;;;;;;5053167;28;20127;-67
2022/10/22 06:48:29;;;;;;;3.42;0.80;;;12.90;98.00;;;;;;5043822;28;20410;-67
2022/10/22 06:50:55;;;;;;;4.50;1.10;;;12.90;98.00;;;;;;5052140;28;20041;-67
2022/10/22 06:53:20;;;;;;;2.40;0.77;;;13.00;98.00;;;;;;5055462;28;20075;-67
2022/10/22 06:55:46;;;;;;;2.92;0.80;;;13.00;98.00;;;;;;5051714;28;20029;-67
2022/10/22 06:58:12;;;;;;;2.00;1.00;;;13.00;98.00;;;;;;5055233;28;20087;-67
2022/10/22 07:00:37;;;;;;;2.65;1.10;;;13.10;98.00;;;;;;5051262;28;20044;-67
2022/10/22 07:03:03;;;;;;;4.93;1.23;;;13.10;98.00;;;;;;5051580;28;20041;-67
2022/10/22 07:05:28;;;;;;;2.42;0.90;;;13.20;98.00;;;;;;5047140;28;20083;-67
2022/10/22 07:07:54;;;;;;;2.80;1.20;;;13.20;98.00;;;;;;5049784;28;20025;-67
2022/10/22 07:10:20;;;;;;;3.33;1.05;;;13.30;98.00;;;;;;5051532;28;20025;-67
2022/10/22 07:12:45;;;;;;;2.88;1.00;;;13.30;98.00;;;;;;5053628;28;20024;-67
2022/10/22 07:15:11;;;;;;;2.08;1.00;;;13.40;98.00;;;;;;5052971;28;20433;-68
2022/10/22 07:17:37;;;;;;;4.00;1.02;;;13.50;98.00;;;;;;5050854;28;20115;-67
2022/10/22 07:20:03;;;;;;;4.53;1.25;;;13.60;98.00;;;;;;5050776;28;20037;-67
2022/10/22 07:22:28;;;;;;;2.05;0.90;;;13.70;98.00;;;;;;5051346;28;20337;-67
2022/10/22 07:24:54;;;;;;;2.03;1.02;;;13.80;98.00;;;;;;5053942;28;20029;-67
2022/10/22 07:27:20;;;;;;;2.10;0.80;;;13.90;98.00;;;;;;5054207;28;20033;-67
2022/10/22 07:29:45;;;;;;;4.30;1.30;;;14.10;98.00;;;;;;5055073;28;20029;-67
2022/10/22 07:32:11;;;;;;;3.83;1.05;;;14.30;98.00;;;;;;5048473;28;20086;-67
2022/10/22 07:34:37;;;;;;;2.15;1.08;;;14.60;98.00;;;;;;5050234;28;20033;-67
2022/10/22 07:37:02;;;;;;;4.78;1.00;;;14.80;98.00;;;;;;5050761;28;20417;-67
2022/10/22 07:39:28;;;;;;;2.10;0.80;;;15.00;98.00;;;;;;5054640;28;20078;-66
2022/10/22 07:41:54;;;;;;;2.13;0.90;;;15.20;98.00;;;;;;5051369;28;20025;-67
2022/10/22 07:44:19;;;;;;;3.83;0.85;;;15.20;98.00;;;;;;5050582;28;20021;-66
2022/10/22 07:46:45;;;;;;;3.05;1.20;;;15.40;98.00;;;;;;5051691;28;20071;-67
2022/10/22 07:49:11;;;;;;;2.33;0.98;;;15.50;98.00;;;;;;5051197;28;20674;-67
2022/10/22 07:51:36;;;;;;;2.10;0.80;;;15.70;98.00;;;;;;5046656;28;20029;-66
2022/10/22 07:54:03;;;;;;;3.30;0.80;;;15.90;98.00;;;;;;5054723;28;20449;-66
2022/10/22 07:56:28;;;;;;;2.35;0.80;;;16.00;97.80;;;;;;5047776;28;20033;-67
2022/10/22 07:58:54;;;;;;;3.88;1.00;;;16.30;97.30;;;;;;5050823;28;20549;-67
2022/10/22 08:01:19;;;;;;;6.15;0.90;;;16.80;95.90;;;;;;5053252;28;20130;-67
2022/10/22 08:03:45;;;;;;;6.78;1.10;;;17.20;93.50;;;;;;5052311;28;20115;-67
2022/10/22 08:06:14;;;;;;;3.22;1.13;;;17.20;93.80;;;;;;5053195;28;20021;-67
2022/10/22 08:08:40;;;;;;;6.40;1.00;;;17.20;93.40;;;;;;5050182;28;20022;-67
2022/10/22 08:11:06;;;;;;;6.18;1.35;;;17.20;93.70;;;;;;5049548;28;20362;-67
2022/10/22 08:13:32;;;;;;;3.38;1.10;;;17.80;93.40;;;;;;5051334;28;20168;-67
2022/10/22 08:16:01;;;;;;;3.53;1.27;;;18.20;91.10;;;;;;5058374;28;20033;-67
2022/10/22 08:18:27;;;;;;;3.25;1.20;;;18.00;92.20;;;;;;5056857;28;20072;-67
2022/10/22 08:20:53;;;;;;;5.10;1.42;;;17.70;92.70;;;;;;5054039;28;20049;-66
2022/10/22 08:23:19;;;;;;;4.43;1.05;;;17.10;93.90;;;;;;5052093;28;20060;-67
2022/10/22 08:25:44;;;;;;;5.80;1.55;;;16.40;95.40;;;;;;5042875;28;20383;-66
2022/10/22 08:28:11;;;;;;;3.33;1.38;;;16.80;96.70;;;;;;5050002;28;20029;-67
2022/10/22 08:30:37;;;;;;;3.42;1.10;;;17.80;94.40;;;;;;5045328;28;20056;-66
2022/10/22 08:33:04;;;;;;;3.67;1.27;;;18.50;91.00;;;;;;5048749;28;20314;-66
2022/10/22 08:35:32;;;;;;;2.13;0.93;;;18.50;91.20;;;;;;5056715;28;20043;-65
2022/10/22 08:37:58;;;;;;;5.55;1.08;;;19.00;90.00;;;;;;5070198;28;20024;-67
2022/10/22 08:40:38;;;;;;;3.08;1.27;;;19.70;86.90;;;;;;5048652;28;20447;-66
2022/10/22 08:43:16;;;;;;;7.05;1.80;;;19.60;88.00;;;;;;5051480;28;20030;-66
2022/10/22 08:46:06;;;;;;;5.35;1.00;;;20.00;87.10;;;;;;5057261;28;20048;-66
2022/10/22 08:48:55;;;;;;;6.38;1.30;;;20.00;86.60;;;;;;5058825;28;20029;-65
2022/10/22 08:51:26;;;;;;;9.68;1.33;;;19.20;87.70;;;;;;5050354;28;20036;-65
2022/10/22 08:54:16;;;;;;;5.45;1.20;;;19.10;89.40;;;;;;5042695;28;20043;-65
2022/10/22 08:56:53;;;;;;;3.60;1.33;;;19.70;86.30;;;;;;5055999;28;21883;-67
2022/10/22 08:59:25;;;;;;;6.03;1.10;;;20.10;85.30;;;;;;5052721;28;20090;-67
2022/10/22 09:01:52;;;;;;;5.00;1.00;;;19.00;87.60;;;;;;5056895;28;20033;-67
2022/10/22 09:04:40;;;;;;;3.00;1.10;;;19.10;87.40;;;;;;5052230;28;20469;-66
2022/10/22 09:07:09;;;;;;;3.97;1.30;;;19.70;87.10;;;;;;5044394;28;20425;-65
2022/10/22 09:09:41;;;;;;;4.00;1.10;;;19.70;86.00;;;;;;5057518;28;20029;-66
2022/10/22 09:12:13;;;;;;;4.32;1.20;;;19.50;86.50;;;;;;5056687;28;20025;-67
2022/10/22 09:14:38;;;;;;;3.58;1.10;;;19.80;86.70;;;;;;5055698;28;20062;-67
2022/10/22 09:17:17;;;;;;;4.18;1.08;;;20.10;85.40;;;;;;5056557;28;20107;-67
2022/10/22 09:19:45;;;;;;;4.55;1.10;;;19.90;85.60;;;;;;5057627;28;20028;-67
2022/10/22 09:22:37;;;;;;;3.72;1.10;;;20.10;85.00;;;;;;5056614;28;20025;-67
2022/10/22 09:25:20;;;;;;;7.97;1.35;;;20.40;85.30;;;;;;5053695;28;20032;-67
2022/10/22 09:27:46;;;;;;;2.53;0.90;;;20.30;84.40;;;;;;5042348;28;20348;-67
2022/10/22 09:30:18;;;;;;;3.83;1.20;;;20.10;84.70;;;;;;5055873;28;20025;-66
2022/10/22 09:32:43;;;;;;;6.47;1.35;;;20.00;84.70;;;;;;5056309;28;20051;-66
2022/10/22 09:35:12;;;;;;;5.25;1.20;;;20.20;84.70;;;;;;5055079;28;20417;-66
2022/10/22 09:37:49;;;;;;;7.35;1.90;;;20.30;84.90;;;;;;5057063;28;20071;-66
2022/10/22 09:40:16;;;;;;;6.70;1.30;;;20.60;84.30;;;;;;5058225;28;20040;-66
2022/10/22 09:42:44;;;;;;;4.28;1.02;;;20.40;83.40;;;;;;5054030;28;20159;-65
2022/10/22 09:45:25;;;;;;;2.95;1.10;;;19.80;86.00;;;;;;5061601;28;20416;-67
2022/10/22 09:48:10;;;;;;;6.68;1.20;;;20.40;84.80;;;;;;5052055;28;20047;-67
2022/10/22 09:50:45;;;;;;;3.25;1.30;;;20.20;83.50;;;;;;5046771;28;20108;-66
2022/10/22 09:53:24;;;;;;;5.13;1.25;;;19.40;86.10;;;;;;5050485;28;20029;-65
2022/10/22 09:55:58;;;;;;;3.78;1.30;;;19.60;87.20;;;;;;5052331;28;20484;-66
2022/10/22 09:58:24;;;;;;;6.35;1.35;;;19.90;85.00;;;;;;5043819;28;20338;-66
2022/10/22 10:00:57;;;;;;;4.53;1.30;;;20.80;83.90;;;;;;5046990;28;20067;-66
2022/10/22 10:03:29;;;;;;;4.10;1.13;;;20.60;84.50;;;;;;5006488;28;20125;-66
2022/10/22 10:05:58;;;;;;;3.95;1.30;;;21.30;83.70;;;;;;5007224;28;20033;-66
2022/10/22 10:08:23;;;;;;;4.40;1.38;;;22.20;81.60;;;;;;5014784;28;20101;-66
2022/10/22 10:11:04;;;;;;;5.20;1.77;;;22.10;79.60;;;;;;5014022;28;20109;-66
2022/10/22 10:13:48;;;;;;;3.50;1.25;;;20.50;83.00;;;;;;5014663;28;20088;-64
2022/10/22 10:16:23;;;;;;;7.13;1.60;;;20.00;86.30;;;;;;5013447;28;20026;-66
2022/10/22 10:19:04;;;;;;;6.00;1.60;;;20.40;84.80;;;;;;5014214;28;20041;-66
2022/10/22 10:21:43;;;;;;;8.73;1.48;;;20.50;85.20;;;;;;5017562;28;20396;-65
2022/10/22 10:24:15;;;;;;;5.43;1.50;;;20.10;85.40;;;;;;5016157;28;20044;-65
2022/10/22 10:26:53;;;;;;;3.72;1.40;;;19.30;87.60;;;;;;5013588;28;20454;-65
2022/10/22 10:29:43;;;;;;;5.38;1.70;;;18.60;90.10;;;;;;5013974;28;20117;-68
2022/10/22 10:32:18;;;;;;;6.95;2.20;;;18.20;91.80;;;;;;5008416;28;20032;-65
2022/10/22 10:35:03;;;;;;;3.13;1.17;;;18.80;90.80;;;;;;5011845;28;20029;-65
2022/10/22 10:37:40;;;;;;;7.65;1.90;;;19.20;89.10;;;;;;5005384;28;20327;-64
2022/10/22 10:40:32;;;;;;;8.77;2.75;;;18.80;90.60;;;;;;5013914;28;20033;-64
2022/10/22 10:43:12;;;;;;;6.80;2.10;;;18.50;91.20;;;;;;5014852;28;20370;-64
2022/10/22 10:45:59;;;;;;;7.57;1.85;;;18.90;90.30;;;;;;5013928;28;20056;-64
2022/10/22 10:48:52;;;;;;;7.22;1.80;;;20.10;87.40;;;;;;5014806;28;20084;-63
2022/10/22 10:51:45;;;;;;;7.38;1.90;;;21.40;84.20;;;;;;5028750;28;20105;-65
2022/10/22 10:54:26;;;;;;;7.10;1.77;;;21.90;82.80;;;;;;5014236;28;20034;-66
2022/10/22 10:56:57;;;;;;;7.50;1.90;;;22.40;81.80;;;;;;5012467;28;20079;-65
2022/10/22 10:59:41;;;;;;;4.07;1.25;;;23.10;79.80;;;;;;5014675;28;20041;-64
2022/10/22 11:02:16;;;;;;;;;;;23.30;77.40;;;;;;5031699;28;20053;-64
2022/10/22 11:05:17;;;;;;;9.70;2.85;;;21.90;80.60;;;;;;5048612;28;19956;-65
2022/10/22 11:07:51;;;;;;;6.07;1.90;;;20.50;84.20;;;;;;5015832;28;20036;-66
2022/10/22 11:10:54;;;;;;;13.23;2.10;;;18.90;88.00;;;;;;5054521;28;20075;-68
2022/10/22 11:13:39;;;;;;;7.40;1.98;;;18.10;89.60;;;;;;5039505;28;20215;-65
2022/10/22 11:16:34;;;;;;;9.23;2.50;;;17.30;92.20;;;;;;5053288;28;20082;-65
2022/10/22 11:19:06;;;;;;;9.10;2.55;;;17.10;93.30;;;;;;5050072;28;20033;-66
2022/10/22 11:21:32;;;;;;;5.70;1.70;;;17.00;94.20;;;;;;5054468;28;20107;-66
2022/10/22 11:24:29;;;;;;;8.93;3.08;;;16.90;93.80;;;;;;5055370;28;20091;-65
2022/10/22 11:27:03;;;;;;;7.05;2.30;;;16.70;94.50;;;;;;5045431;28;20029;-65
2022/10/22 11:29:37;;;;;;;7.90;2.50;;;16.50;95.30;;;;;;5054689;28;20029;-65
2022/10/22 11:32:05;;;;;;;7.88;1.73;;;16.50;94.20;;;;;;5054961;28;20025;-64
2022/10/22 11:34:43;;;;;;;5.38;1.38;;;16.50;95.00;;;;;;5054185;28;20112;-64
2022/10/22 11:37:12;;;;;;;9.95;2.53;;;16.50;94.50;;;;;;5044542;28;20052;-64
2022/10/22 11:40:03;;;;;;;8.07;2.75;;;16.60;95.20;;;;;;5054153;28;20044;-65
2022/10/22 11:42:38;;;;;;;6.40;1.70;;;16.70;95.30;;;;;;5051914;28;20460;-65
2022/10/22 11:45:27;;;;;;;5.95;1.45;;;17.00;94.10;;;;;;5053469;28;20033;-68
2022/10/22 11:48:06;;;;;;;7.30;1.77;;;17.50;93.50;;;;;;5052612;28;20033;-66
2022/10/22 11:50:45;;;;;;;6.63;1.77;;;18.30;91.10;;;;;;5059445;28;20029;-67
2022/10/22 11:53:11;;;;;;;5.45;1.48;;;18.30;89.20;;;;;;5059188;28;20037;-67
2022/10/22 11:55:46;;;;;;;6.78;1.50;;;18.00;88.40;;;;;;5058059;28;20108;-66
2022/10/22 11:58:27;;;;;;;5.72;1.70;;;18.10;89.30;;;;;;5057423;28;20024;-67
2022/10/22 12:01:00;;;;;;;9.60;1.30;;;18.80;86.80;;;;;;5058508;28;20040;-66
2022/10/22 12:03:31;;;;;;;6.90;1.55;;;19.30;85.80;;;;;;5058537;28;20075;-66
2022/10/22 12:06:12;;;;;;;8.68;1.60;;;18.90;86.50;;;;;;5059170;28;20025;-66
2022/10/22 12:08:55;;;;;;;5.28;1.90;;;19.10;85.90;;;;;;5058326;28;20029;-66
2022/10/22 12:11:48;;;;;;;6.47;1.48;;;19.70;85.40;;;;;;5038051;28;20345;-66
2022/10/22 12:14:23;;;;;;;3.88;0.98;;;20.20;81.50;;;;;;5038905;28;20318;-66
2022/10/22 12:16:56;;;;;;;6.60;1.35;;;20.20;80.80;;;;;;5038847;28;20104;-66
2022/10/22 12:19:21;;;;;;;4.75;1.00;;;20.00;81.70;;;;;;5038830;28;20037;-66
2022/10/22 12:21:53;;;;;;;6.00;1.60;;;19.80;82.50;;;;;;5038699;28;20044;-67
2022/10/22 12:24:21;;;;;;;6.60;1.20;;;19.90;82.20;;;;;;5046420;28;20037;-66
2022/10/22 12:26:51;;;;;;;4.80;1.50;;;20.00;81.90;;;;;;5057488;28;20379;-67
2022/10/22 12:29:18;;;;;;;4.30;1.30;;;20.10;80.40;;;;;;5058284;28;20091;-67
2022/10/22 12:31:45;;;;;;;5.32;1.30;;;20.30;80.70;;;;;;5058319;28;20029;-66
2022/10/22 12:34:16;;;;;;;5.85;1.20;;;20.20;79.40;;;;;;5058389;28;20033;-67
2022/10/22 12:36:46;;;;;;;5.93;1.50;;;19.90;79.40;;;;;;5058374;28;20021;-66
2022/10/22 12:39:23;;;;;;;4.97;1.27;;;20.00;80.30;;;;;;5056260;28;20036;-67
2022/10/22 12:41:50;;;;;;;4.50;1.08;;;20.00;80.50;;;;;;5057099;28;20052;-66
2022/10/22 12:44:16;;;;;;;5.97;1.30;;;20.10;79.60;;;;;;5058265;28;20021;-65
2022/10/22 12:46:45;;;;;;;8.48;1.70;;;20.20;79.60;;;;;;5058198;28;20025;-66
2022/10/22 12:49:18;;;;;;;5.00;1.40;;;20.20;79.50;;;;;;5040361;28;20029;-66
2022/10/22 12:51:45;;;;;;;5.95;1.63;;;20.30;79.80;;;;;;5058211;28;20033;-66
2022/10/22 12:54:29;;;;;;;7.25;1.48;;;20.30;79.10;;;;;;5057267;28;20021;-66
2022/10/22 12:56:57;;;;;;;5.47;1.38;;;20.00;80.00;;;;;;5056914;28;20017;-67
2022/10/22 12:59:23;;;;;;;4.68;1.33;;;20.40;78.90;;;;;;5055974;28;20067;-66
2022/10/22 13:01:50;;;;;;;4.25;1.20;;;20.40;79.60;;;;;;5056848;28;20079;-66
2022/10/22 13:04:15;;;;;;;9.07;1.40;;;20.50;79.40;;;;;;5057872;28;20024;-66
2022/10/22 13:06:49;;;;;;;5.90;1.40;;;20.40;79.60;;;;;;5057959;28;20310;-66